createdAt,value
2018-07-25T00:01:19.670Z,100172.03
2018-07-25T00:03:53.342Z,100175.08
2018-07-25T00:06:26.995Z,100175.25
2018-07-25T00:09:00.692Z,100165.42
2018-07-25T00:11:34.350Z,100174.53
2018-07-25T00:14:08.058Z,100177.83
2018-07-25T00:16:41.765Z,100176.27
2018-07-25T00:19:15.492Z,100175.63
2018-07-25T00:21:49.145Z,100171.35
2018-07-25T00:24:22.810Z,100173.84
2018-07-25T00:26:56.457Z,100170.67
2018-07-25T00:29:30.145Z,100179.05
2018-07-25T00:32:03.802Z,100169.55
2018-07-25T00:34:37.562Z,100168.93
2018-07-25T00:37:11.187Z,100162.84
2018-07-25T00:39:44.993Z,100164.19
2018-07-25T00:42:18.640Z,100170.58
2018-07-25T00:44:52.310Z,100165.28
2018-07-25T00:47:25.949Z,100177.30
2018-07-25T00:49:59.625Z,100168.37
2018-07-25T00:52:33.345Z,100172.69
2018-07-25T00:55:07.928Z,100168.28
2018-07-25T00:57:41.639Z,100162.53
2018-07-25T01:00:15.289Z,100166.42
2018-07-25T01:02:49.783Z,100167.22
2018-07-25T01:05:23.505Z,100162.98
2018-07-25T01:07:57.176Z,100160.23
2018-07-25T01:10:30.858Z,100162.25
2018-07-25T01:13:04.519Z,100164.55
2018-07-25T01:15:38.385Z,100168.03
2018-07-25T01:18:12.006Z,100173.03
2018-07-25T01:20:45.707Z,100167.23
2018-07-25T01:23:19.355Z,100168.41
2018-07-25T01:25:53.003Z,100169.42
2018-07-25T01:28:26.699Z,100172.29
2018-07-25T01:31:00.337Z,100165.69
2018-07-25T01:33:33.955Z,100167.82
2018-07-25T01:36:07.686Z,100165.22
2018-07-25T01:38:41.316Z,100167.13
2018-07-25T01:41:15.073Z,100164.72
2018-07-25T01:43:48.941Z,100171.91
2018-07-25T01:46:22.575Z,100167.53
2018-07-25T01:48:56.289Z,100179.59
2018-07-25T01:51:29.927Z,100175.47
2018-07-25T01:54:03.574Z,100178.82
2018-07-25T01:56:37.498Z,100175.18
2018-07-25T01:59:11.120Z,100178.80
2018-07-25T02:01:44.766Z,100169.36
2018-07-25T02:04:18.415Z,100171.56
2018-07-25T02:06:52.107Z,100171.22
2018-07-25T02:09:25.788Z,100168.86
2018-07-25T02:11:59.470Z,100171.88
2018-07-25T02:14:33.139Z,100172.23
2018-07-25T02:17:06.843Z,100168.14
2018-07-25T02:19:40.599Z,100167.42
2018-07-25T02:22:14.248Z,100172.38
2018-07-25T02:24:47.955Z,100174.92
2018-07-25T02:27:21.600Z,100174.27
2018-07-25T02:29:55.258Z,100178.10
2018-07-25T02:32:28.882Z,100180.58
2018-07-25T02:35:03.094Z,100184.52
2018-07-25T02:37:36.836Z,100183.59
2018-07-25T02:40:10.536Z,100175.24
2018-07-25T02:42:44.247Z,100183.97
2018-07-25T02:45:17.938Z,100183.14
2018-07-25T02:47:51.656Z,100176.67
2018-07-25T02:50:25.335Z,100176.17
2018-07-25T02:52:58.919Z,100174.81
2018-07-25T02:55:32.588Z,100183.47
2018-07-25T02:58:06.393Z,100185.13
2018-07-25T03:00:40.080Z,100186.44
2018-07-25T03:03:13.762Z,100183.32
2018-07-25T03:05:47.375Z,100185.56
2018-07-25T03:08:21.076Z,100192.33
2018-07-25T03:10:55.617Z,100190.82
2018-07-25T03:13:29.248Z,100202.65
2018-07-25T03:16:05.235Z,100205.42
2018-07-25T03:18:38.976Z,100208.47
2018-07-25T03:21:12.639Z,100208.67
2018-07-25T03:23:46.397Z,100205.28
2018-07-25T03:26:20.170Z,100204.73
2018-07-25T03:28:53.811Z,100212.11
2018-07-25T03:31:27.588Z,100214.31
2018-07-25T03:34:01.218Z,100212.02
2018-07-25T03:36:34.846Z,100213.81
2018-07-25T03:39:08.654Z,100208.29
2018-07-25T03:41:42.380Z,100208.33
2018-07-25T03:44:16.080Z,100214.08
2018-07-25T03:46:49.770Z,100218.77
2018-07-25T03:49:23.420Z,100216.56
2018-07-25T03:52:01.022Z,100217.23
2018-07-25T03:54:35.924Z,100211.96
2018-07-25T03:57:09.635Z,100216.27
2018-07-25T03:59:43.327Z,100215.16
2018-07-25T04:02:17.054Z,100207.65
2018-07-25T04:04:50.739Z,100205.02
2018-07-25T04:07:24.673Z,100211.22
2018-07-25T04:09:58.424Z,100213.26
2018-07-25T04:12:32.496Z,100217.27
2018-07-25T04:15:07.409Z,100212.03
2018-07-25T04:17:48.870Z,100220.92
2018-07-25T04:20:22.602Z,100222.98
2018-07-25T04:22:56.276Z,100224.16
2018-07-25T04:25:29.912Z,100223.03
2018-07-25T04:28:03.571Z,100227.70
2018-07-25T04:30:38.005Z,100231.11
2018-07-25T04:33:11.752Z,100234.61
2018-07-25T04:35:46.316Z,100231.81
2018-07-25T04:38:20.015Z,100234.12
2018-07-25T04:40:53.738Z,100237.66
2018-07-25T04:43:27.416Z,100237.16
2018-07-25T04:46:01.244Z,100238.16
2018-07-25T04:48:34.891Z,100241.91
2018-07-25T04:51:08.914Z,100241.84
2018-07-25T04:53:43.554Z,100242.05
2018-07-25T04:56:17.302Z,100249.21
2018-07-25T04:58:51.204Z,100253.53
2018-07-25T05:01:24.900Z,100260.30
2018-07-25T05:03:58.631Z,100259.30
2018-07-25T05:06:32.384Z,100270.85
2018-07-25T05:09:08.488Z,100264.70
2018-07-25T05:11:42.157Z,100262.71
2018-07-25T05:14:15.880Z,100263.73
2018-07-25T05:16:50.269Z,100267.70
2018-07-25T05:19:24.043Z,100263.67
2018-07-25T05:21:57.835Z,100263.81
2018-07-25T05:24:31.574Z,100266.11
2018-07-25T05:27:05.258Z,100266.72
2018-07-25T05:29:39.165Z,100268.80
2018-07-25T05:32:12.966Z,100269.93
2018-07-25T05:34:46.694Z,100281.16
2018-07-25T05:37:20.475Z,100271.59
2018-07-25T05:39:54.314Z,100269.95
2018-07-25T05:42:27.997Z,100275.45
2018-07-25T05:45:06.726Z,100280.34
2018-07-25T05:47:40.445Z,100281.19
2018-07-25T05:50:14.255Z,100280.76
2018-07-25T05:52:47.938Z,100280.65
2018-07-25T05:55:21.692Z,100278.37
2018-07-25T05:57:55.437Z,100277.73
2018-07-25T06:00:29.369Z,100280.20
2018-07-25T06:03:03.313Z,100278.21
2018-07-25T06:05:36.966Z,100281.82
2018-07-25T06:08:10.747Z,100281.92
2018-07-25T06:10:44.497Z,100278.43
2018-07-25T06:13:18.279Z,100284.03
2018-07-25T06:15:52.016Z,100279.94
2018-07-25T06:18:25.800Z,100289.58
2018-07-25T06:20:59.617Z,100280.87
2018-07-25T06:23:33.325Z,100282.28
2018-07-25T06:26:07.207Z,100282.98
2018-07-25T06:28:40.989Z,100277.69
2018-07-25T06:31:14.859Z,100277.23
2018-07-25T06:33:48.601Z,100278.80
2018-07-25T06:36:22.362Z,100279.09
2018-07-25T06:38:56.094Z,100279.53
2018-07-25T06:41:29.887Z,100277.03
2018-07-25T06:44:03.658Z,100279.78
2018-07-25T06:46:37.489Z,100286.77
2018-07-25T06:49:11.260Z,100286.20
2018-07-25T06:51:45.196Z,100288.98
2018-07-25T06:54:19.094Z,100286.84
2018-07-25T06:56:52.783Z,100293.02
2018-07-25T06:59:26.687Z,100295.41
2018-07-25T07:02:01.253Z,100304.20
2018-07-25T07:04:36.007Z,100299.27
2018-07-25T07:07:15.463Z,100300.55
2018-07-25T07:09:49.251Z,100298.20
2018-07-25T07:12:23.951Z,100302.14
2018-07-25T07:14:57.598Z,100297.55
2018-07-25T07:17:31.431Z,100295.84
2018-07-25T07:20:09.667Z,100293.07
2018-07-25T07:22:43.438Z,100298.36
2018-07-25T07:25:17.318Z,100293.96
2018-07-25T07:27:52.109Z,100300.48
2018-07-25T07:30:26.288Z,100301.73
2018-07-25T07:33:00.902Z,100302.98
2018-07-25T07:35:34.814Z,100304.03
2018-07-25T07:38:08.466Z,100300.02
2018-07-25T07:40:42.578Z,100305.08
2018-07-25T07:43:16.337Z,100306.54
2018-07-25T07:45:50.127Z,100305.88
2018-07-25T07:48:23.849Z,100308.43
2018-07-25T07:50:58.319Z,100304.26
2018-07-25T07:53:34.063Z,100305.45
2018-07-25T07:56:08.377Z,100307.16
2018-07-25T07:58:42.135Z,100308.35
2018-07-25T08:01:15.772Z,100313.95
2018-07-25T08:03:49.423Z,100305.19
2018-07-25T08:06:24.891Z,100300.66
2018-07-25T08:08:58.706Z,100304.91
2018-07-25T08:11:33.887Z,100299.00
2018-07-25T08:14:07.647Z,100306.80
2018-07-25T08:16:41.458Z,100303.94
2018-07-25T08:19:15.200Z,100306.14
2018-07-25T08:21:48.931Z,100305.63
2018-07-25T08:24:22.685Z,100310.41
2018-07-25T08:26:56.425Z,100312.46
2018-07-25T08:29:30.161Z,100311.30
2018-07-25T08:32:03.858Z,100305.39
2018-07-25T08:34:37.786Z,100304.89
2018-07-25T08:37:11.571Z,100306.09
2018-07-25T08:39:45.456Z,100308.41
2018-07-25T08:42:19.941Z,100309.45
2018-07-25T08:44:53.670Z,100301.64
2018-07-25T08:47:27.488Z,100307.44
2018-07-25T08:50:06.861Z,100306.19
2018-07-25T08:52:41.773Z,100304.64
2018-07-25T08:55:15.643Z,100300.94
2018-07-25T08:57:51.102Z,100308.20
2018-07-25T09:00:24.931Z,100307.84
2018-07-25T09:02:58.749Z,100309.45
2018-07-25T09:05:32.414Z,100304.23
2018-07-25T09:08:06.145Z,100301.66
2018-07-25T09:10:39.934Z,100298.36
2018-07-25T09:13:13.610Z,100302.00
2018-07-25T09:15:47.263Z,100301.84
2018-07-25T09:18:20.934Z,100285.84
2018-07-25T09:20:55.314Z,100304.87
2018-07-25T09:23:28.990Z,100311.81
2018-07-25T09:26:02.656Z,100307.09
2018-07-25T09:28:36.362Z,100303.36
2018-07-25T09:31:10.167Z,100301.41
2018-07-25T09:33:44.012Z,100298.04
2018-07-25T09:36:17.792Z,100292.78
2018-07-25T09:38:53.680Z,100302.51
2018-07-25T09:41:27.513Z,100295.43
2018-07-25T09:44:02.227Z,100293.41
2018-07-25T09:46:36.024Z,100293.72
2018-07-25T09:49:09.888Z,100288.69
2018-07-25T09:51:43.929Z,100292.55
2018-07-25T09:54:17.804Z,100289.85
2018-07-25T09:56:51.533Z,100290.36
2018-07-25T09:59:25.445Z,100292.16
2018-07-25T10:01:59.893Z,100289.34
2018-07-25T10:04:33.679Z,100297.12
2018-07-25T10:07:07.414Z,100291.89
2018-07-25T10:09:41.164Z,100290.80
2018-07-25T10:12:14.875Z,100290.30
2018-07-25T10:14:48.742Z,100294.35
2018-07-25T10:17:22.590Z,100287.09
2018-07-25T10:19:56.381Z,100285.56
2018-07-25T10:22:30.244Z,100283.20
2018-07-25T10:25:11.276Z,100283.72
2018-07-25T10:27:45.224Z,100280.83
2018-07-25T10:30:19.127Z,100278.81
2018-07-25T10:32:53.888Z,100276.11
2018-07-25T10:35:27.687Z,100272.95
2018-07-25T10:38:01.833Z,100281.23
2018-07-25T10:40:35.630Z,100280.56
2018-07-25T10:43:16.594Z,100275.31
2018-07-25T10:45:50.414Z,100273.12
2018-07-25T10:48:24.327Z,100271.26
2018-07-25T10:50:58.070Z,100270.59
2018-07-25T10:53:31.884Z,100265.70
2018-07-25T10:56:05.754Z,100262.66
2018-07-25T10:58:39.638Z,100258.94
2018-07-25T11:01:13.479Z,100252.05
2018-07-25T11:03:47.427Z,100256.63
2018-07-25T11:06:25.293Z,100249.68
2018-07-25T11:08:59.201Z,100248.52
2018-07-25T11:11:33.032Z,100247.77
2018-07-25T11:14:07.269Z,100248.86
2018-07-25T11:16:41.318Z,100254.95
2018-07-25T11:19:15.209Z,100238.55
2018-07-25T11:21:49.190Z,100248.00
2018-07-25T11:24:24.257Z,100249.52
2018-07-25T11:26:58.371Z,100249.68
2018-07-25T11:29:32.315Z,100249.02
2018-07-25T11:32:16.027Z,100246.54
2018-07-25T11:34:50.735Z,100247.52
2018-07-25T11:37:24.519Z,100247.52
2018-07-25T11:39:58.604Z,100234.36
2018-07-25T11:42:32.335Z,100242.84
2018-07-25T11:45:07.938Z,100239.79
2018-07-25T11:47:41.723Z,100224.48
2018-07-25T11:50:16.538Z,100234.54
2018-07-25T11:52:50.179Z,100224.22
2018-07-25T11:55:23.935Z,100219.15
2018-07-25T11:57:58.333Z,100218.30
2018-07-25T12:00:33.012Z,100212.55
2018-07-25T12:03:09.190Z,100211.48
2018-07-25T12:05:44.608Z,100213.34
2018-07-25T12:08:18.478Z,100213.18
2018-07-25T12:10:52.441Z,100214.24
2018-07-25T12:13:26.405Z,100209.63
2018-07-25T12:16:00.248Z,100213.23
2018-07-25T12:18:34.957Z,100210.41
2018-07-25T12:21:09.556Z,100209.90
2018-07-25T12:23:43.449Z,100212.44
2018-07-25T12:28:51.415Z,100221.23
2018-07-25T12:31:25.046Z,100213.45
2018-07-25T12:33:58.817Z,100213.72
2018-07-25T12:36:32.476Z,100213.05
2018-07-25T12:39:09.450Z,100205.61
2018-07-25T12:41:43.238Z,100207.63
2018-07-25T12:44:16.806Z,100192.25
2018-07-25T12:46:50.495Z,100198.38
2018-07-25T12:49:24.145Z,100190.94
2018-07-25T12:51:57.858Z,100186.02
2018-07-25T12:54:31.500Z,100193.14
2018-07-25T12:57:05.251Z,100178.75
2018-07-25T12:59:39.054Z,100173.84
2018-07-25T13:02:13.154Z,100183.83
2018-07-25T13:04:46.911Z,100172.32
2018-07-25T13:07:20.717Z,100166.39
2018-07-25T13:09:54.367Z,100171.69
2018-07-25T13:12:28.034Z,100169.56
2018-07-25T13:15:03.693Z,100168.38
2018-07-25T13:17:37.414Z,100160.65
2018-07-25T13:20:11.066Z,100168.94
2018-07-25T13:22:44.866Z,100162.84
2018-07-25T13:25:18.599Z,100164.24
2018-07-25T13:27:52.661Z,100155.27
2018-07-25T13:30:26.303Z,100153.23
2018-07-25T13:32:59.944Z,100153.37
2018-07-25T13:35:33.576Z,100154.38
2018-07-25T13:38:07.301Z,100153.70
2018-07-25T13:40:40.938Z,100147.78
2018-07-25T13:43:14.593Z,100141.56
2018-07-25T13:45:48.458Z,100141.69
2018-07-25T13:48:22.301Z,100147.66
2018-07-25T13:50:56.148Z,100141.73
2018-07-25T13:53:29.982Z,100130.22
2018-07-25T13:56:03.911Z,100128.02
2018-07-25T13:58:37.602Z,100127.85
2018-07-25T14:01:11.503Z,100121.59
2018-07-25T14:24:17.266Z,100115.12
2018-07-25T14:26:51.292Z,100109.87
2018-07-25T14:29:25.152Z,100111.39
2018-07-25T14:31:59.974Z,100112.62
2018-07-25T14:34:33.987Z,100112.78
2018-07-25T14:37:08.686Z,100110.25
2018-07-25T14:39:42.480Z,100102.83
2018-07-25T14:42:16.170Z,100104.70
2018-07-25T14:44:50.455Z,100105.41
2018-07-25T14:47:27.793Z,100113.16
2018-07-25T14:50:05.086Z,100108.42
2018-07-25T14:52:38.827Z,100111.13
2018-07-25T14:55:12.568Z,100114.20
2018-07-25T15:00:39.050Z,100107.63
2018-07-25T15:03:13.647Z,100103.23
2018-07-25T15:05:47.487Z,100108.64
2018-07-25T15:08:21.363Z,100105.67
2018-07-25T15:10:55.249Z,100100.33
2018-07-25T15:13:29.591Z,100104.41
2018-07-25T15:16:03.480Z,100106.35
2018-07-25T15:18:37.319Z,100101.47
2018-07-25T15:21:13.008Z,100097.92
2018-07-25T15:23:57.705Z,100098.07
2018-07-25T15:26:31.495Z,100091.31
2018-07-25T15:29:05.320Z,100097.95
2018-07-25T15:31:39.735Z,100091.48
2018-07-25T15:34:13.859Z,100096.08
2018-07-25T15:36:50.508Z,100094.52
2018-07-25T15:39:26.161Z,100089.58
2018-07-25T15:42:00.320Z,100085.81
2018-07-25T15:44:34.980Z,100091.94
2018-07-25T15:47:08.723Z,100084.98
2018-07-25T15:49:49.013Z,100083.45
2018-07-25T15:52:22.722Z,100082.26
2018-07-25T15:54:56.483Z,100079.70
2018-07-25T15:57:30.218Z,100074.95
2018-07-25T16:00:08.188Z,100072.44
2018-07-25T16:02:41.914Z,100074.37
2018-07-25T16:05:16.162Z,100067.91
2018-07-25T16:07:49.910Z,100068.27
2018-07-25T16:10:23.640Z,100070.63
2018-07-25T16:12:57.331Z,100072.14
2018-07-25T16:15:31.175Z,100068.58
2018-07-25T16:18:04.907Z,100080.29
2018-07-25T16:20:38.607Z,100074.05
2018-07-25T16:23:12.397Z,100071.98
2018-07-25T16:25:46.105Z,100071.34
2018-07-25T16:28:19.733Z,100062.34
2018-07-25T16:30:54.728Z,100067.59
2018-07-25T16:33:28.562Z,100065.23
2018-07-25T16:36:02.286Z,100066.39
2018-07-25T16:38:36.347Z,100065.70
2018-07-25T16:41:10.413Z,100065.53
2018-07-25T16:43:45.443Z,100067.75
2018-07-25T16:46:19.414Z,100068.44
2018-07-25T16:48:53.444Z,100064.42
2018-07-25T16:51:27.255Z,100067.48
2018-07-25T16:54:00.958Z,100069.48
2018-07-25T16:56:34.819Z,100066.55
2018-07-25T16:59:08.587Z,100071.31
2018-07-25T17:01:42.312Z,100067.72
2018-07-25T17:04:17.210Z,100065.25
2018-07-25T17:06:51.131Z,100064.57
2018-07-25T17:09:24.803Z,100069.19
2018-07-25T17:11:58.570Z,100059.42
2018-07-25T17:14:32.315Z,100057.98
2018-07-25T17:17:06.328Z,100057.23
2018-07-25T17:19:39.942Z,100059.21
2018-07-25T17:22:13.739Z,100061.93
2018-07-25T17:24:47.573Z,100053.22
2018-07-25T17:27:21.335Z,100056.42
2018-07-25T17:29:54.959Z,100062.37
2018-07-25T17:32:28.655Z,100061.47
2018-07-25T17:35:05.545Z,100058.80
2018-07-25T17:37:39.194Z,100066.91
2018-07-25T17:40:13.063Z,100070.67
2018-07-25T17:42:46.680Z,100077.85
2018-07-25T17:45:20.359Z,100073.20
2018-07-25T17:47:54.394Z,100079.67
2018-07-25T17:50:28.133Z,100077.14
2018-07-25T17:53:01.896Z,100087.77
2018-07-25T17:55:35.832Z,100087.84
2018-07-25T17:58:09.447Z,100085.63
2018-07-25T18:00:43.264Z,100091.79
2018-07-25T18:03:17.011Z,100091.46
2018-07-25T18:05:50.794Z,100091.66
2018-07-25T18:08:24.447Z,100103.78
2018-07-25T18:10:58.320Z,100105.34
2018-07-25T18:13:37.254Z,100107.16
2018-07-25T18:16:11.104Z,100110.77
2018-07-25T18:18:44.875Z,100116.21
2018-07-25T18:21:18.591Z,100124.42
2018-07-25T18:23:52.329Z,100118.13
2018-07-25T18:26:26.297Z,100128.16
2018-07-25T18:29:00.043Z,100130.14
2018-07-25T18:31:34.156Z,100139.23
2018-07-25T18:34:08.019Z,100136.38
2018-07-25T18:36:41.791Z,100140.61
2018-07-25T18:39:15.499Z,100143.80
2018-07-25T18:41:49.162Z,100135.46
2018-07-25T18:44:22.883Z,100144.69
2018-07-25T18:46:56.762Z,100145.37
2018-07-25T18:49:30.525Z,100143.51
2018-07-25T18:52:04.457Z,100145.11
2018-07-25T18:54:38.339Z,100148.48
2018-07-25T18:57:12.256Z,100152.79
2018-07-25T18:59:46.011Z,100154.17
2018-07-25T19:02:19.904Z,100155.64
2018-07-25T19:04:53.534Z,100160.60
2018-07-25T19:07:27.861Z,100147.08
2018-07-25T19:10:05.113Z,100164.73
2018-07-25T19:12:39.166Z,100173.56
2018-07-25T19:15:18.104Z,100174.41
2018-07-25T19:20:26.337Z,100181.70
2018-07-25T19:23:00.119Z,100183.23
2018-07-25T19:25:33.839Z,100190.34
2018-07-25T19:28:07.438Z,100189.66
2018-07-25T19:30:41.130Z,100193.41
2018-07-25T19:33:14.810Z,100201.52
2018-07-25T19:35:48.528Z,100199.67
2018-07-25T19:38:22.369Z,100208.81
2018-07-25T19:41:06.060Z,100212.56
2018-07-25T19:43:49.701Z,100209.62
2018-07-25T19:46:33.337Z,100209.28
2018-07-25T19:49:17.011Z,100208.83
2018-07-25T19:52:00.681Z,100209.00
2018-07-25T19:54:44.331Z,100214.42
2018-07-25T19:57:27.934Z,100216.80
2018-07-25T20:00:16.381Z,100216.47
2018-07-25T20:02:55.257Z,100211.82
2018-07-25T20:05:38.914Z,100218.77
2018-07-25T20:08:22.549Z,100228.48
2018-07-25T20:11:06.543Z,100233.05
2018-07-25T20:13:55.391Z,100231.22
2018-07-25T20:16:39.285Z,100234.08
2018-07-25T20:19:23.121Z,100241.03
2018-07-25T20:22:06.790Z,100234.88
2018-07-25T20:24:50.442Z,100244.88
2018-07-25T20:27:34.392Z,100242.17
2018-07-25T20:30:18.127Z,100239.02
2018-07-25T20:33:01.915Z,100244.09
2018-07-25T20:35:45.736Z,100248.80
2018-07-25T20:38:29.469Z,100246.94
2018-07-25T20:41:13.163Z,100244.21
2018-07-25T20:43:56.803Z,100244.09
2018-07-25T20:46:40.514Z,100248.01
2018-07-25T20:49:24.222Z,100253.72
2018-07-25T20:52:07.826Z,100253.39
2018-07-25T20:54:51.431Z,100255.91
2018-07-25T20:57:35.064Z,100255.73
2018-07-25T21:00:22.972Z,100257.44
2018-07-25T21:03:07.653Z,100255.73
2018-07-25T21:05:51.276Z,100250.66
2018-07-25T21:08:34.946Z,100256.75
2018-07-25T21:11:18.522Z,100264.88
2018-07-25T21:14:02.147Z,100264.02
2018-07-25T21:16:45.726Z,100261.64
2018-07-25T21:19:29.409Z,100267.60
2018-07-25T21:22:13.322Z,100270.63
2018-07-25T21:24:57.020Z,100269.02
2018-07-25T21:27:40.676Z,100270.73
2018-07-25T21:30:24.504Z,100284.43
2018-07-25T21:33:08.183Z,100282.27
2018-07-25T21:35:51.808Z,100280.75
2018-07-25T21:38:35.478Z,100273.43
2018-07-25T21:41:19.606Z,100280.56
2018-07-25T21:44:03.872Z,100282.97
2018-07-25T21:46:48.094Z,100276.16
2018-07-25T21:49:31.788Z,100278.73
2018-07-25T21:52:15.446Z,100274.64
2018-07-25T21:54:59.082Z,100278.03
2018-07-25T21:57:42.891Z,100272.11
2018-07-25T22:00:26.517Z,100272.77
2018-07-25T22:03:10.342Z,100278.55
2018-07-25T22:05:54.119Z,100280.58
2018-07-25T22:08:37.782Z,100284.66
2018-07-25T22:11:21.507Z,100283.30
2018-07-25T22:14:05.206Z,100276.34
2018-07-25T22:16:48.851Z,100281.44
2018-07-25T22:19:32.493Z,100290.92
2018-07-25T22:22:16.271Z,100286.50
2018-07-25T22:24:59.933Z,100281.24
2018-07-25T22:27:43.697Z,100279.55
2018-07-25T22:30:27.468Z,100284.11
2018-07-25T22:33:11.168Z,100284.48
2018-07-25T22:35:54.839Z,100280.20
2018-07-25T22:38:38.518Z,100281.92
2018-07-25T22:41:22.183Z,100278.55
2018-07-25T22:44:06.031Z,100287.19
2018-07-25T22:46:49.686Z,100289.20
2018-07-25T22:49:33.350Z,100296.66
2018-07-25T22:52:17.035Z,100296.84
2018-07-25T22:55:01.959Z,100294.99
2018-07-25T22:57:45.582Z,100300.58
2018-07-25T23:00:29.263Z,100301.23
2018-07-25T23:03:12.895Z,100299.20
2018-07-25T23:05:56.595Z,100298.70
2018-07-25T23:08:40.298Z,100297.33
2018-07-25T23:11:23.938Z,100303.64
2018-07-25T23:14:07.625Z,100297.15
2018-07-25T23:16:51.288Z,100299.69
2018-07-25T23:19:34.998Z,100302.63
2018-07-25T23:22:18.591Z,100296.97
2018-07-25T23:25:03.453Z,100300.71
2018-07-25T23:27:47.103Z,100306.98
2018-07-25T23:30:30.814Z,100298.02
2018-07-25T23:33:14.438Z,100297.69
2018-07-25T23:35:58.072Z,100299.86
2018-07-25T23:38:41.766Z,100303.08
2018-07-25T23:41:25.389Z,100311.05
2018-07-25T23:44:09.175Z,100301.39
2018-07-25T23:46:52.799Z,100298.70
2018-07-25T23:49:36.539Z,100299.69
2018-07-25T23:52:20.212Z,100298.00
2018-07-25T23:55:06.203Z,100304.27
2018-07-25T23:57:49.893Z,100306.75
